createdAt,value
2019-04-03T00:01:11.982Z,98602.24
2019-04-03T00:03:39.834Z,98604.44
2019-04-03T00:06:07.580Z,98603.97
2019-04-03T00:08:36.684Z,98601.17
2019-04-03T00:11:04.874Z,98598.70
2019-04-03T00:13:32.554Z,98603.70
2019-04-03T00:16:00.360Z,98600.19
2019-04-03T00:18:28.511Z,98602.70
2019-04-03T00:20:56.288Z,98599.89
2019-04-03T00:23:23.990Z,98609.21
2019-04-03T00:25:52.374Z,98607.22
2019-04-03T00:28:23.005Z,98614.41
2019-04-03T00:30:53.388Z,98609.75
2019-04-03T00:33:23.075Z,98610.27
2019-04-03T00:35:53.034Z,98605.28
2019-04-03T00:38:19.691Z,98605.28
2019-04-03T00:40:47.415Z,98605.47
2019-04-03T00:43:15.196Z,98607.66
2019-04-03T00:45:43.301Z,98601.67
2019-04-03T00:48:11.100Z,98601.67
2019-04-03T00:50:39.197Z,98603.15
2019-04-03T00:53:06.981Z,98604.33
2019-04-03T00:55:39.286Z,98598.30
2019-04-03T00:58:04.625Z,98596.95
2019-04-03T01:00:32.375Z,98600.91
2019-04-03T01:03:00.294Z,98601.03
2019-04-03T01:05:29.081Z,98605.98
2019-04-03T01:07:59.190Z,98597.47
2019-04-03T01:10:26.331Z,98603.11
2019-04-03T01:12:54.106Z,98603.44
2019-04-03T01:15:22.194Z,98600.87
2019-04-03T01:17:49.900Z,98602.33
2019-04-03T01:20:17.699Z,98603.98
2019-04-03T01:22:45.415Z,98596.09
2019-04-03T01:25:13.746Z,98590.61
2019-04-03T01:27:42.072Z,98588.57
2019-04-03T01:30:10.395Z,98585.23
2019-04-03T01:32:38.129Z,98585.23
2019-04-03T01:35:08.955Z,98586.56
2019-04-03T01:37:35.729Z,98578.91
2019-04-03T01:40:03.531Z,98566.93
2019-04-03T01:42:31.742Z,98566.93
2019-04-03T01:44:59.534Z,98571.91
2019-04-03T01:47:27.868Z,98574.38
2019-04-03T01:49:56.831Z,98574.38
2019-04-03T01:52:25.867Z,98591.14
2019-04-03T01:54:55.883Z,98591.14
2019-04-03T01:57:23.687Z,98595.41
2019-04-03T01:59:51.760Z,98595.41
2019-04-03T02:02:20.241Z,98593.61
2019-04-03T02:04:48.014Z,98589.42
2019-04-03T02:07:15.783Z,98596.41
2019-04-03T02:09:46.241Z,98598.73
2019-04-03T02:12:14.284Z,98597.06
2019-04-03T02:14:42.425Z,98599.72
2019-04-03T02:17:10.177Z,98596.72
2019-04-03T02:19:37.886Z,98606.51
2019-04-03T02:22:05.698Z,98596.53
2019-04-03T02:24:33.886Z,98599.30
2019-04-03T02:27:03.110Z,98580.66
2019-04-03T02:29:31.188Z,98580.66
2019-04-03T02:31:59.740Z,98580.12
2019-04-03T02:34:27.436Z,98580.12
2019-04-03T02:36:55.421Z,98583.58
2019-04-03T02:39:27.379Z,98579.34
2019-04-03T02:41:52.462Z,98575.19
2019-04-03T02:44:20.162Z,98575.33
2019-04-03T02:46:48.282Z,98573.80
2019-04-03T02:49:16.401Z,98573.80
2019-04-03T02:51:44.126Z,98580.59
2019-04-03T02:54:11.879Z,98581.04
2019-04-03T02:56:39.982Z,98581.04
2019-04-03T02:59:07.717Z,98575.19
2019-04-03T03:01:38.312Z,98582.00
2019-04-03T03:04:04.640Z,98582.00
2019-04-03T03:06:33.300Z,98572.50
2019-04-03T03:09:01.461Z,98581.60
2019-04-03T03:11:29.157Z,98582.87
2019-04-03T03:13:56.903Z,98582.87
2019-04-03T03:16:25.047Z,98582.20
2019-04-03T03:18:52.737Z,98583.83
2019-04-03T03:21:20.470Z,98583.49
2019-04-03T03:23:48.123Z,98574.13
2019-04-03T03:26:16.345Z,98574.92
2019-04-03T03:28:46.963Z,98574.92
2019-04-03T03:31:14.246Z,98583.41
2019-04-03T03:33:42.831Z,98572.06
2019-04-03T03:36:11.399Z,98561.55
2019-04-03T03:38:40.353Z,98561.55
2019-04-03T03:41:08.391Z,98555.05
2019-04-03T03:43:38.360Z,98562.20
2019-04-03T03:46:05.922Z,98567.78
2019-04-03T03:48:34.375Z,98567.78
2019-04-03T03:51:01.982Z,98579.91
2019-04-03T03:53:29.626Z,98575.72
2019-04-03T03:55:59.363Z,98578.52
2019-04-03T03:58:27.131Z,98578.52
2019-04-03T04:00:58.296Z,98585.13
2019-04-03T04:03:24.845Z,98585.13
2019-04-03T04:05:55.631Z,98571.74
2019-04-03T04:08:22.441Z,98571.74
2019-04-03T04:10:50.217Z,98577.29
2019-04-03T04:13:17.930Z,98577.29
2019-04-03T04:15:46.309Z,98576.88
2019-04-03T04:18:15.537Z,98576.20
2019-04-03T04:20:43.800Z,98576.20
2019-04-03T04:23:11.731Z,98572.22
2019-04-03T04:25:40.078Z,98576.81
2019-04-03T04:28:09.198Z,98560.88
2019-04-03T04:30:37.550Z,98560.88
2019-04-03T04:33:05.318Z,98556.56
2019-04-03T04:35:33.412Z,98557.07
2019-04-03T04:38:01.188Z,98544.92
2019-04-03T04:40:30.468Z,98544.92
2019-04-03T04:42:58.163Z,98545.91
2019-04-03T04:45:26.243Z,98554.00
2019-04-03T04:47:54.055Z,98546.89
2019-04-03T04:50:24.285Z,98546.89
2019-04-03T04:52:51.317Z,98546.04
2019-04-03T04:55:19.108Z,98547.23
2019-04-03T04:57:46.775Z,98553.22
2019-04-03T05:00:15.646Z,98553.22
2019-04-03T05:02:46.093Z,98554.69
2019-04-03T05:05:16.291Z,98554.69
2019-04-03T05:07:44.423Z,98574.13
2019-04-03T05:10:12.125Z,98568.13
2019-04-03T05:12:42.649Z,98566.87
2019-04-03T05:15:09.862Z,98566.87
2019-04-03T05:17:37.552Z,98557.54
2019-04-03T05:20:05.283Z,98562.30
2019-04-03T05:22:33.860Z,98566.85
2019-04-03T05:25:02.040Z,98566.85
2019-04-03T05:27:29.740Z,98566.98
2019-04-03T05:29:59.938Z,98566.30
2019-04-03T05:32:27.601Z,98569.80
2019-04-03T05:34:55.348Z,98569.80
2019-04-03T05:37:23.606Z,98565.11
2019-04-03T05:39:51.343Z,98570.41
2019-04-03T05:42:22.168Z,98567.77
2019-04-03T05:44:50.619Z,98567.77
2019-04-03T05:47:18.427Z,98568.48
2019-04-03T05:49:47.101Z,98576.65
2019-04-03T05:52:15.407Z,98573.83
2019-04-03T05:54:44.597Z,98573.83
2019-04-03T05:57:14.063Z,98574.33
2019-04-03T05:59:44.171Z,98574.33
2019-04-03T06:02:15.733Z,98573.69
2019-04-03T06:04:41.647Z,98573.69
2019-04-03T06:07:10.050Z,98565.94
2019-04-03T06:09:37.817Z,98572.78
2019-04-03T06:12:08.347Z,98572.78
2019-04-03T06:14:37.160Z,98566.18
2019-04-03T06:17:04.823Z,98560.09
2019-04-03T06:19:35.189Z,98563.09
2019-04-03T06:22:03.077Z,98559.45
2019-04-03T06:24:30.777Z,98559.45
2019-04-03T06:26:58.498Z,98557.85
2019-04-03T06:29:26.997Z,98557.85
2019-04-03T06:31:58.283Z,98557.95
2019-04-03T06:34:28.987Z,98557.95
2019-04-03T06:36:57.085Z,98563.09
2019-04-03T06:39:30.427Z,98563.09
2019-04-03T06:41:54.148Z,98560.37
2019-04-03T06:44:23.034Z,98560.00
2019-04-03T06:46:53.687Z,98560.00
2019-04-03T06:49:23.116Z,98574.13
2019-04-03T06:51:51.205Z,98570.48
2019-04-03T06:54:21.522Z,98573.00
2019-04-03T06:56:52.080Z,98550.64
2019-04-03T06:59:18.937Z,98562.48
2019-04-03T07:01:47.191Z,98565.14
2019-04-03T07:04:17.062Z,98581.72
2019-04-03T07:06:45.623Z,98574.53
2019-04-03T07:09:22.630Z,98574.53
2019-04-03T07:11:44.013Z,98590.25
2019-04-03T07:14:12.452Z,98590.25
2019-04-03T07:16:40.190Z,98590.18
2019-04-03T07:19:08.677Z,98590.18
2019-04-03T07:21:37.879Z,98594.94
2019-04-03T07:24:08.058Z,98594.94
2019-04-03T07:26:36.284Z,98587.97
2019-04-03T07:29:04.617Z,98592.93
2019-04-03T07:31:32.683Z,98596.44
2019-04-03T07:34:03.381Z,98596.44
2019-04-03T07:36:31.478Z,98598.92
2019-04-03T07:38:59.216Z,98607.39
2019-04-03T07:41:27.274Z,98607.39
2019-04-03T07:43:54.990Z,98596.06
2019-04-03T07:46:22.698Z,98599.88
2019-04-03T07:48:50.843Z,98604.63
2019-04-03T07:51:20.432Z,98605.75
2019-04-03T07:53:51.214Z,98605.75
2019-04-03T07:56:25.605Z,98606.22
2019-04-03T07:58:49.428Z,98606.22
2019-04-03T08:01:18.802Z,98604.55
2019-04-03T08:03:50.017Z,98612.31
2019-04-03T08:06:17.733Z,98604.51
2019-04-03T08:08:45.492Z,98604.51
2019-04-03T08:11:14.960Z,98610.30
2019-04-03T08:13:44.233Z,98603.31
2019-04-03T08:16:13.782Z,98603.80
2019-04-03T08:18:41.638Z,98607.98
2019-04-03T08:21:12.465Z,98613.93
2019-04-03T08:23:40.580Z,98613.93
2019-04-03T08:26:12.164Z,98612.27
2019-04-03T08:28:40.343Z,98605.89
2019-04-03T08:31:10.591Z,98612.35
2019-04-03T08:33:38.248Z,98611.63
2019-04-03T08:36:08.190Z,98611.63
2019-04-03T08:38:36.509Z,98614.67
2019-04-03T08:41:04.442Z,98624.91
2019-04-03T08:43:35.562Z,98628.70
2019-04-03T08:46:03.955Z,98625.84
2019-04-03T08:48:31.822Z,98625.84
2019-04-03T08:51:02.322Z,98632.42
2019-04-03T08:53:29.337Z,98631.09
2019-04-03T08:55:57.130Z,98631.09
2019-04-03T08:58:26.011Z,98630.75
2019-04-03T09:00:54.928Z,98626.82
2019-04-03T09:03:25.149Z,98630.38
2019-04-03T09:05:55.818Z,98634.44
2019-04-03T09:08:26.099Z,98634.44
2019-04-03T09:10:53.855Z,98637.48
2019-04-03T09:13:23.252Z,98632.09
2019-04-03T09:15:59.718Z,98626.66
2019-04-03T09:18:25.518Z,98626.66
2019-04-03T09:20:53.494Z,98629.99
2019-04-03T09:23:24.607Z,98628.53
2019-04-03T09:25:51.126Z,98633.28
2019-04-03T09:28:26.219Z,98633.28
2019-04-03T09:30:54.789Z,98634.18
2019-04-03T09:33:29.756Z,98631.44
2019-04-03T09:35:59.449Z,98628.77
2019-04-03T09:38:30.926Z,98625.86
2019-04-03T09:40:58.668Z,98626.52
2019-04-03T09:43:26.398Z,98609.70
2019-04-03T09:45:54.791Z,98605.03
2019-04-03T09:48:22.496Z,98605.03
2019-04-03T09:50:57.510Z,98607.50
2019-04-03T09:53:26.362Z,98603.97
2019-04-03T09:55:55.892Z,98603.97
2019-04-03T09:58:23.643Z,98602.16
2019-04-03T10:00:51.855Z,98602.16
2019-04-03T10:03:20.802Z,98583.24
2019-04-03T10:05:49.101Z,98583.24
2019-04-03T10:08:20.968Z,98585.56
2019-04-03T10:10:49.057Z,98600.83
2019-04-03T10:13:16.806Z,98607.08
2019-04-03T10:15:44.831Z,98607.08
2019-04-03T10:18:14.737Z,98610.73
2019-04-03T10:20:44.306Z,98608.67
2019-04-03T10:23:13.464Z,98608.67
2019-04-03T10:25:41.182Z,98608.22
2019-04-03T10:28:13.684Z,98606.63
2019-04-03T10:30:44.513Z,98606.63
2019-04-03T10:33:16.393Z,98607.65
2019-04-03T10:35:47.761Z,98603.38
2019-04-03T10:38:18.205Z,98596.30
2019-04-03T10:40:47.962Z,98596.30
2019-04-03T10:43:15.662Z,98598.14
2019-04-03T10:45:43.404Z,98596.81
2019-04-03T10:48:11.237Z,98583.84
2019-04-03T10:50:39.300Z,98583.84
2019-04-03T10:53:09.726Z,98584.30
2019-04-03T10:55:37.914Z,98574.53
2019-04-03T10:58:08.593Z,98574.53
2019-04-03T11:00:37.113Z,98560.41
2019-04-03T11:03:05.103Z,98560.41
2019-04-03T11:05:33.742Z,98547.11
2019-04-03T11:08:01.515Z,98557.09
2019-04-03T11:10:29.233Z,98558.80
2019-04-03T11:12:57.075Z,98557.47
2019-04-03T11:15:24.819Z,98556.23
2019-04-03T11:17:52.815Z,98546.91
2019-04-03T11:20:20.606Z,98546.91
2019-04-03T11:22:49.011Z,98548.70
2019-04-03T11:25:17.774Z,98535.91
2019-04-03T11:27:46.170Z,98535.91
2019-04-03T11:30:17.555Z,98540.23
2019-04-03T11:32:48.247Z,98540.23
2019-04-03T11:35:23.136Z,98525.65
2019-04-03T11:37:51.347Z,98516.13
2019-04-03T11:40:19.459Z,98494.01
2019-04-03T11:42:50.284Z,98476.31
2019-04-03T11:45:18.436Z,98476.31
2019-04-03T11:47:47.792Z,98473.75
2019-04-03T11:50:15.545Z,98473.75
2019-04-03T11:52:43.792Z,98488.25
2019-04-03T11:55:12.283Z,98471.48
2019-04-03T11:57:42.500Z,98471.48
2019-04-03T12:00:19.152Z,98473.09
2019-04-03T12:02:47.922Z,98482.38
2019-04-03T12:05:16.498Z,98482.38
2019-04-03T12:07:43.338Z,98481.95
2019-04-03T12:10:11.487Z,98479.47
2019-04-03T12:12:41.649Z,98467.85
2019-04-03T12:15:16.229Z,98451.65
2019-04-03T12:17:44.674Z,98448.98
2019-04-03T12:20:15.127Z,98455.49
2019-04-03T12:22:44.722Z,98455.49
2019-04-03T12:25:12.953Z,98459.30
2019-04-03T12:27:49.992Z,98459.30
2019-04-03T12:30:17.397Z,98466.17
2019-04-03T12:32:49.355Z,98477.59
2019-04-03T12:35:15.101Z,98485.80
2019-04-03T12:37:44.601Z,98478.32
2019-04-03T12:40:12.755Z,98478.32
2019-04-03T12:42:44.627Z,98473.44
2019-04-03T12:45:12.147Z,98471.75
2019-04-03T12:47:44.453Z,98482.61
2019-04-03T12:50:12.805Z,98468.81
2019-04-03T12:52:44.736Z,98455.47
2019-04-03T12:55:10.750Z,98455.47
2019-04-03T12:57:42.649Z,98442.30
2019-04-03T13:00:26.080Z,98437.16
2019-04-03T13:02:45.292Z,98450.98
2019-04-03T13:05:15.291Z,98456.80
2019-04-03T13:07:46.891Z,98470.30
2019-04-03T13:10:12.503Z,98467.98
2019-04-03T13:12:41.314Z,98461.45
2019-04-03T13:15:09.281Z,98456.47
2019-04-03T13:17:39.193Z,98458.66
2019-04-03T13:20:07.406Z,98450.15
2019-04-03T13:22:35.509Z,98441.11
2019-04-03T13:25:03.319Z,98427.67
2019-04-03T13:27:32.796Z,98427.67
2019-04-03T13:30:03.567Z,98416.55
2019-04-03T13:32:31.654Z,98415.77
2019-04-03T13:35:04.719Z,98415.77
2019-04-03T13:37:33.318Z,98400.33
2019-04-03T13:40:01.572Z,98376.75
2019-04-03T13:42:31.646Z,98376.75
2019-04-03T13:44:59.663Z,98380.77
2019-04-03T13:47:28.002Z,98398.65
2019-04-03T13:50:02.011Z,98398.65
2019-04-03T13:52:40.250Z,98398.38
2019-04-03T13:55:07.067Z,98386.76
2019-04-03T13:57:37.156Z,98386.76
2019-04-03T14:00:17.520Z,98376.59
2019-04-03T14:02:37.451Z,98361.59
2019-04-03T14:05:05.441Z,98368.59
2019-04-03T14:07:33.248Z,98367.58
2019-04-03T14:10:01.394Z,98368.10
2019-04-03T14:12:29.285Z,98362.27
2019-04-03T14:14:57.148Z,98370.80
2019-04-03T14:17:25.393Z,98370.80
2019-04-03T14:19:53.586Z,98382.81
2019-04-03T14:22:21.553Z,98382.81
2019-04-03T14:24:52.592Z,98387.48
2019-04-03T14:27:24.654Z,98393.12
2019-04-03T14:29:48.875Z,98372.78
2019-04-03T14:32:21.720Z,98372.78
2019-04-03T14:34:51.372Z,98372.62
2019-04-03T14:37:24.432Z,98372.62
2019-04-03T14:39:51.043Z,98379.10
2019-04-03T14:42:20.628Z,98377.44
2019-04-03T14:44:50.218Z,98379.77
2019-04-03T14:47:18.045Z,98379.77
2019-04-03T14:49:46.311Z,98376.93
2019-04-03T14:52:14.995Z,98376.29
2019-04-03T14:54:47.221Z,98376.29
2019-04-03T14:57:20.866Z,98374.77
2019-04-03T14:59:45.228Z,98369.47
2019-04-03T15:02:13.675Z,98369.47
2019-04-03T15:04:41.556Z,98364.98
2019-04-03T15:07:10.274Z,98369.13
2019-04-03T15:09:38.782Z,98365.13
2019-04-03T15:12:08.397Z,98365.13
2019-04-03T15:14:36.850Z,98362.11
2019-04-03T15:17:05.416Z,98356.78
2019-04-03T15:19:33.671Z,98360.13
2019-04-03T15:22:02.504Z,98354.77
2019-04-03T15:24:30.673Z,98358.59
2019-04-03T15:27:00.248Z,98366.78
2019-04-03T15:29:28.492Z,98366.78
2019-04-03T15:31:56.294Z,98369.44
2019-04-03T15:34:27.222Z,98376.59
2019-04-03T15:36:58.209Z,98376.59
2019-04-03T15:39:26.540Z,98386.38
2019-04-03T15:41:54.310Z,98386.38
2019-04-03T15:44:28.950Z,98392.69
2019-04-03T15:46:52.312Z,98392.69
2019-04-03T15:49:25.601Z,98394.33
2019-04-03T15:51:52.581Z,98383.01
2019-04-03T15:54:22.543Z,98388.34
2019-04-03T15:56:50.353Z,98388.34
2019-04-03T15:59:18.652Z,98387.48
2019-04-03T16:01:46.627Z,98381.68
2019-04-03T16:04:14.453Z,98379.50
2019-04-03T16:06:46.452Z,98379.50
2019-04-03T16:09:17.177Z,98383.68
2019-04-03T16:11:43.976Z,98380.50
2019-04-03T16:14:12.469Z,98373.31
2019-04-03T16:16:40.333Z,98373.31
2019-04-03T16:19:10.963Z,98368.63
2019-04-03T16:21:38.300Z,98368.63
2019-04-03T16:24:10.139Z,98361.28
2019-04-03T16:26:35.816Z,98361.28
2019-04-03T16:29:08.546Z,98348.79
2019-04-03T16:31:36.157Z,98351.75
2019-04-03T16:34:06.860Z,98347.77
2019-04-03T16:36:35.031Z,98347.77
2019-04-03T16:39:07.048Z,98355.56
2019-04-03T16:41:37.442Z,98357.56
2019-04-03T16:44:06.405Z,98342.71
2019-04-03T16:46:34.229Z,98337.20
2019-04-03T16:49:06.404Z,98333.73
2019-04-03T16:51:33.854Z,98340.53
2019-04-03T16:54:04.304Z,98340.53
2019-04-03T16:56:31.980Z,98335.73
2019-04-03T16:59:15.988Z,98328.56
2019-04-03T17:01:45.122Z,98332.22
2019-04-03T17:04:25.615Z,98337.36
2019-04-03T17:06:49.078Z,98337.36
2019-04-03T17:09:25.534Z,98334.52
2019-04-03T17:11:53.680Z,98335.84
2019-04-03T17:14:24.898Z,98329.67
2019-04-03T17:16:52.950Z,98329.67
2019-04-03T17:19:21.163Z,98327.02
2019-04-03T17:21:53.182Z,98339.47
2019-04-03T17:24:19.891Z,98342.45
2019-04-03T17:26:53.906Z,98342.45
2019-04-03T17:29:17.462Z,98334.29
2019-04-03T17:31:45.371Z,98337.43
2019-04-03T17:34:13.620Z,98330.63
2019-04-03T17:36:41.946Z,98342.23
2019-04-03T17:39:10.105Z,98349.32
2019-04-03T17:41:38.613Z,98346.48
2019-04-03T17:44:06.547Z,98346.48
2019-04-03T17:46:34.293Z,98342.34
2019-04-03T17:49:02.119Z,98341.16
2019-04-03T17:51:29.845Z,98336.83
2019-04-03T17:54:03.226Z,98345.77
2019-04-03T17:56:31.048Z,98360.20
2019-04-03T17:59:06.914Z,98360.20
2019-04-03T18:01:34.693Z,98374.75
2019-04-03T18:04:04.307Z,98374.75
2019-04-03T18:06:32.112Z,98386.94
2019-04-03T18:09:06.637Z,98386.94
2019-04-03T18:11:34.438Z,98397.71
2019-04-03T18:14:05.511Z,98384.36
2019-04-03T18:16:33.261Z,98384.36
2019-04-03T18:19:02.842Z,98377.52
2019-04-03T18:21:30.963Z,98379.73
2019-04-03T18:24:00.302Z,98379.73
2019-04-03T18:26:35.390Z,98376.55
2019-04-03T18:29:06.416Z,98376.55
2019-04-03T18:31:35.249Z,98370.67
2019-04-03T18:34:04.438Z,98367.73
2019-04-03T18:36:35.639Z,98372.64
2019-04-03T18:39:04.626Z,98372.64
2019-04-03T18:41:33.989Z,98392.61
2019-04-03T18:44:03.980Z,98392.61
2019-04-03T18:46:32.721Z,98401.97
2019-04-03T18:49:01.770Z,98392.99
2019-04-03T18:51:31.027Z,98392.99
2019-04-03T18:53:58.795Z,98392.99
2019-04-03T18:56:26.843Z,98414.86
2019-04-03T18:58:55.562Z,98414.86
2019-04-03T19:01:25.244Z,98427.06
2019-04-03T19:03:57.882Z,98440.97
2019-04-03T19:06:24.760Z,98460.52
2019-04-03T19:08:52.521Z,98442.25
2019-04-03T19:11:20.717Z,98442.25
2019-04-03T19:13:49.423Z,98445.72
2019-04-03T19:16:28.968Z,98457.95
2019-04-03T19:18:51.961Z,98462.07
2019-04-03T19:21:24.230Z,98462.07
2019-04-03T19:23:53.727Z,98449.25
2019-04-03T19:26:22.156Z,98449.25
2019-04-03T19:28:50.324Z,98456.66
2019-04-03T19:31:21.194Z,98457.60
2019-04-03T19:33:53.278Z,98445.59
2019-04-03T19:36:21.835Z,98449.37
2019-04-03T19:38:49.412Z,98455.81
2019-04-03T19:41:17.251Z,98461.73
2019-04-03T19:43:48.438Z,98461.34
2019-04-03T19:46:16.191Z,98465.45
2019-04-03T19:48:43.985Z,98465.45
2019-04-03T19:51:13.200Z,98460.87
2019-04-03T19:53:41.002Z,98460.87
2019-04-03T19:56:08.997Z,98468.41
2019-04-03T19:58:39.741Z,98468.41
2019-04-03T20:01:09.172Z,98456.01
2019-04-03T20:03:36.896Z,98449.99
2019-04-03T20:06:05.113Z,98455.58
2019-04-03T20:08:34.872Z,98455.58
2019-04-03T20:11:03.041Z,98453.91
2019-04-03T20:13:32.607Z,98459.00
2019-04-03T20:16:03.557Z,98459.00
2019-04-03T20:18:31.368Z,98478.40
2019-04-03T20:21:01.934Z,98462.98
2019-04-03T20:23:42.574Z,98451.91
2019-04-03T20:26:17.280Z,98451.91
2019-04-03T20:28:44.955Z,98465.97
2019-04-03T20:31:12.610Z,98449.52
2019-04-03T20:33:46.524Z,98447.03
2019-04-03T20:36:16.524Z,98454.26
2019-04-03T20:38:44.640Z,98454.26
2019-04-03T20:41:13.056Z,98435.33
2019-04-03T20:43:47.192Z,98419.22
2019-04-03T20:46:13.165Z,98422.34
2019-04-03T20:48:40.865Z,98425.28
2019-04-03T20:51:11.870Z,98425.28
2019-04-03T20:53:39.586Z,98421.09
2019-04-03T20:56:08.836Z,98415.93
2019-04-03T20:58:40.781Z,98406.95
2019-04-03T21:01:08.500Z,98406.95
2019-04-03T21:03:36.184Z,98388.84
2019-04-03T21:06:15.171Z,98385.22
2019-04-03T21:08:42.799Z,98386.20
2019-04-03T21:11:11.001Z,98388.00
2019-04-03T21:13:40.901Z,98376.59
2019-04-03T21:16:09.877Z,98376.59
2019-04-03T21:18:39.819Z,98367.16
2019-04-03T21:21:07.860Z,98378.09
2019-04-03T21:23:35.503Z,98382.06
2019-04-03T21:26:03.217Z,98376.93
2019-04-03T21:28:31.292Z,98369.97
2019-04-03T21:30:59.430Z,98379.58
2019-04-03T21:33:30.741Z,98381.24
2019-04-03T21:35:59.025Z,98363.90
2019-04-03T21:38:26.626Z,98363.90
2019-04-03T21:40:55.869Z,98384.92
2019-04-03T21:43:23.492Z,98387.23
2019-04-03T21:45:51.176Z,98379.63
2019-04-03T21:48:21.939Z,98379.63
2019-04-03T21:50:49.807Z,98385.43
2019-04-03T21:53:18.424Z,98392.39
2019-04-03T21:55:46.117Z,98392.39
2019-04-03T21:58:20.018Z,98391.97
2019-04-03T22:00:49.516Z,98384.70
2019-04-03T22:03:19.472Z,98386.38
2019-04-03T22:05:46.431Z,98391.33
2019-04-03T22:08:14.549Z,98391.33
2019-04-03T22:10:42.203Z,98390.98
2019-04-03T22:13:09.923Z,98400.68
2019-04-03T22:15:37.525Z,98400.68
2019-04-03T22:18:05.574Z,98409.39
2019-04-03T22:20:33.260Z,98409.39
2019-04-03T22:23:01.024Z,98414.34
2019-04-03T22:25:30.345Z,98423.74
2019-04-03T22:27:58.400Z,98424.03
2019-04-03T22:30:26.191Z,98413.02
2019-04-03T22:32:56.604Z,98414.47
2019-04-03T22:35:24.766Z,98410.66
2019-04-03T22:37:52.430Z,98406.81
2019-04-03T22:40:20.221Z,98390.59
2019-04-03T22:42:48.695Z,98389.91
2019-04-03T22:45:18.026Z,98391.70
2019-04-03T22:47:47.578Z,98396.14
2019-04-03T22:50:15.413Z,98396.14
2019-04-03T22:52:46.045Z,98412.66
2019-04-03T22:55:14.821Z,98412.66
2019-04-03T22:57:43.141Z,98426.88
2019-04-03T23:00:11.198Z,98426.88
2019-04-03T23:02:38.972Z,98421.45
2019-04-03T23:05:06.582Z,98423.59
2019-04-03T23:07:34.233Z,98411.34
2019-04-03T23:10:02.220Z,98410.36
2019-04-03T23:12:29.903Z,98399.42
2019-04-03T23:14:57.604Z,98399.42
2019-04-03T23:17:25.726Z,98401.44
2019-04-03T23:19:53.433Z,98398.95
2019-04-03T23:22:25.830Z,98407.02
2019-04-03T23:24:53.208Z,98403.18
2019-04-03T23:27:21.197Z,98403.18
2019-04-03T23:29:48.875Z,98398.87
2019-04-03T23:32:16.638Z,98380.50
2019-04-03T23:34:44.304Z,98373.51
2019-04-03T23:37:12.281Z,98373.51
2019-04-03T23:39:40.027Z,98369.06
2019-04-03T23:42:07.625Z,98355.14
2019-04-03T23:44:35.417Z,98345.16
2019-04-03T23:47:03.517Z,98356.25
2019-04-03T23:49:31.209Z,98356.25
2019-04-03T23:52:01.314Z,98355.14
2019-04-03T23:54:29.016Z,98355.14
2019-04-03T23:56:57.146Z,98349.76
2019-04-03T23:59:26.515Z,98346.30
